Grifon 5 #- — UGMI — position and weather

sailwx.info

Track history (hours):
 
Tides and Currents Weather Stations Pressure Air Temp Water Temp Dewpoint Dewpoint Depression Visibility Wind Speed Wind Dir Waves Ship Positions

Grifon 5 #-

Last reported at 2018-Apr-27 06:30 UTC. Time now 2018-Apr-27 06:51 UTC.
Position N 59°53' E 030°14'.

Length 25 m.

Type: Ship. MMSI: 273311070.

Date/timePositionNaut miles runAvg speedWind from/ knotsBaromVisibWave heightAir tempDewpointWater temp
2018-Apr-27 06:30N 59°53' E 030°14'1 1.8
2018-Apr-27 05:59N 59°53' E 030°13'1 2.8
2018-Apr-27 05:30N 59°53' E 030°10'2 4.2
2018-Apr-27 04:59N 59°53' E 030°14'0 0.0
2018-Apr-27 04:27N 59°53' E 030°14'0 0.0
2018-Apr-27 04:00N 59°53' E 030°14'0 0.0
2018-Apr-27 03:29N 59°53' E 030°14'0 0.0
2018-Apr-27 03:00N 59°53' E 030°14'0 0.0
2018-Apr-27 02:29N 59°53' E 030°14'0 0.0
2018-Apr-27 01:59N 59°53' E 030°14'0 0.0
2018-Apr-27 01:30N 59°53' E 030°14'0 0.0
2018-Apr-27 00:59N 59°53' E 030°14'0 0.0
2018-Apr-27 00:30N 59°53' E 030°14'1 2.9
2018-Apr-26 23:58N 59°54' E 030°13'1 1.4
2018-Apr-26 23:30N 59°55' E 030°14'0 0.1
2018-Apr-26 23:00N 59°55' E 030°14'0 0.5
2018-Apr-26 22:30N 59°55' E 030°14'0 0.5
2018-Apr-26 22:00N 59°55' E 030°14'0 0.1
2018-Apr-26 21:30N 59°55' E 030°14'1 1.1
2018-Apr-26 21:00N 59°54' E 030°13'2 4.0
2018-Apr-26 20:29N 59°52' E 030°13'0 0.0
2018-Apr-26 19:59N 59°52' E 030°13'1 1.4
2018-Apr-26 19:22N 59°53' E 030°14'0 0.0
2018-Apr-26 18:53N 59°53' E 030°14'0 0.0
2018-Apr-26 18:20N 59°53' E 030°14'0 0.0
2018-Apr-26 17:53N 59°53' E 030°14'0 0.0
2018-Apr-26 17:28N 59°53' E 030°14'0 0.0
2018-Apr-26 17:00N 59°53' E 030°14'0 0.0
2018-Apr-26 16:29N 59°53' E 030°14'0 0.2
2018-Apr-26 15:56N 59°53' E 030°14'1 3.0
2018-Apr-26 15:28N 59°53' E 030°11'0 0.3
2018-Apr-26 15:00N 59°53' E 030°11'1 2.0
2018-Apr-26 14:31N 59°53' E 030°13'1 1.4
2018-Apr-26 13:59N 59°53' E 030°14'0 0.0
2018-Apr-26 13:30N 59°53' E 030°14'0 0.0
2018-Apr-26 13:00N 59°53' E 030°14'0 0.0
2018-Apr-26 12:25N 59°53' E 030°14'0 0.0
2018-Apr-26 11:58N 59°53' E 030°14'0 0.0
2018-Apr-26 11:30N 59°53' E 030°14'0 0.0
2018-Apr-26 10:58N 59°53' E 030°14'0 0.9
2018-Apr-26 10:29N 59°53' E 030°13'0 0.0
2018-Apr-26 10:00N 59°53' E 030°13'0 0.0
2018-Apr-26 09:30N 59°53' E 030°13'1 1.8
2018-Apr-26 09:00N 59°53' E 030°12'0 0.6
2018-Apr-26 08:29N 59°53' E 030°12'0 0.0
2018-Apr-26 08:00N 59°53' E 030°13'1 1.8
2018-Apr-26 07:30N 59°53' E 030°14'0 0.0
2018-Apr-26 07:00N 59°53' E 030°14'0 0.0
2018-Apr-26 06:30N 59°53' E 030°14'0 0.0
2018-Apr-26 06:00N 59°53' E 030°14'0 0.0
2018-Apr-26 05:30N 59°53' E 030°14'0 0.0
2018-Apr-26 05:00N 59°53' E 030°14'0 0.0
2018-Apr-26 04:30N 59°53' E 030°14'0 0.0
2018-Apr-26 04:00N 59°53' E 030°14'1 2.1
2018-Apr-26 03:30N 59°54' E 030°13'1 1.1
2018-Apr-26 03:00N 59°53' E 030°12'1 1.2
2018-Apr-26 02:29N 59°53' E 030°13'1 1.4
2018-Apr-26 02:00N 59°53' E 030°14'0 0.0
2018-Apr-26 01:30N 59°53' E 030°14'0 0.0
2018-Apr-26 01:00N 59°53' E 030°14'0 0.0
2018-Apr-26 00:30N 59°53' E 030°14'0 0.0
2018-Apr-26 00:01N 59°53' E 030°14'0 0.0
2018-Apr-25 23:30N 59°53' E 030°14'0 0.0
2018-Apr-25 22:55N 59°53' E 030°14'0 0.0
2018-Apr-25 22:30N 59°53' E 030°14'0 0.0
2018-Apr-25 22:00N 59°53' E 030°14'0 0.0
2018-Apr-25 21:30N 59°53' E 030°14'0 0.0
2018-Apr-25 20:59N 59°53' E 030°14'0 0.0
2018-Apr-25 20:31N 59°53' E 030°14'0 0.0
2018-Apr-25 20:00N 59°53' E 030°14'0 0.0
2018-Apr-25 19:29N 59°53' E 030°14'0 0.0
2018-Apr-25 19:00N 59°53' E 030°14'0 0.0
2018-Apr-25 18:30N 59°53' E 030°14'0 0.0
2018-Apr-25 18:00N 59°53' E 030°14'0 0.0
2018-Apr-25 17:27N 59°53' E 030°14'0 0.0
2018-Apr-25 17:00N 59°53' E 030°14'0 0.0
2018-Apr-25 16:27N 59°53' E 030°14'1 1.7
2018-Apr-25 16:00N 59°53' E 030°14'1 1.7
2018-Apr-25 15:30N 59°53' E 030°12'0 0.9
2018-Apr-25 15:00N 59°53' E 030°13'1 1.6
2018-Apr-25 14:31N 59°53' E 030°14'0 0.0
2018-Apr-25 13:59N 59°53' E 030°14'0 0.0
2018-Apr-25 13:30N 59°53' E 030°14'0 0.0
2018-Apr-25 12:59N 59°53' E 030°14'0 0.0
2018-Apr-25 12:29N 59°53' E 030°14'0 0.0
2018-Apr-25 12:00N 59°53' E 030°14'0 0.0
2018-Apr-25 11:30N 59°53' E 030°14'0 0.0
2018-Apr-25 10:59N 59°53' E 030°14'0 0.0
2018-Apr-25 10:29N 59°53' E 030°14'0 0.0
2018-Apr-25 10:00N 59°53' E 030°14'0 0.0
2018-Apr-25 09:28N 59°53' E 030°14'0 0.0
2018-Apr-25 08:59N 59°53' E 030°14'0 0.0
2018-Apr-25 08:30N 59°53' E 030°14'0 0.0
2018-Apr-25 08:00N 59°53' E 030°14'0 0.0
2018-Apr-25 07:30N 59°53' E 030°14'1 1.8
2018-Apr-25 07:00N 59°52' E 030°13'0 0.0
2018-Apr-25 06:30N 59°52' E 030°13'1 1.6
2018-Apr-25 06:00N 59°53' E 030°12'1 2.3
2018-Apr-25 05:26N 59°53' E 030°14'0 0.0
2018-Apr-25 05:00N 59°53' E 030°14'0 0.4
2018-Apr-25 04:30N 59°53' E 030°14'1 1.5
2018-Apr-25 04:00N 59°53' E 030°13'0 0.6
2018-Apr-25 03:30N 59°53' E 030°14'0 0.5
2018-Apr-25 02:57N 59°53' E 030°14'1 1.1
2018-Apr-25 02:26N 59°53' E 030°14'0 0.0
2018-Apr-25 01:59N 59°53' E 030°14'0 0.0
2018-Apr-25 01:30N 59°53' E 030°14'0 0.0
2018-Apr-25 01:00N 59°53' E 030°14'0 0.0
2018-Apr-25 00:27N 59°53' E 030°14'0 0.0
2018-Apr-25 00:00N 59°53' E 030°14'0 0.0
2018-Apr-24 23:30N 59°53' E 030°14'0 0.0
2018-Apr-24 22:59N 59°53' E 030°14'0 0.0
2018-Apr-24 22:30N 59°53' E 030°14'0 0.0
2018-Apr-24 22:00N 59°53' E 030°14'0 0.0
2018-Apr-24 21:30N 59°53' E 030°14'0 0.0
2018-Apr-24 21:00N 59°53' E 030°14'0 0.0
2018-Apr-24 20:30N 59°53' E 030°14'0 0.0
2018-Apr-24 20:00N 59°53' E 030°14'0 0.1
2018-Apr-24 19:30N 59°53' E 030°14'0 0.0
2018-Apr-24 19:00N 59°53' E 030°14'0 0.0
2018-Apr-24 18:31N 59°53' E 030°14'0 0.0
2018-Apr-24 18:00N 59°53' E 030°14'0 0.4
2018-Apr-24 17:30N 59°53' E 030°14'1 2.3
2018-Apr-24 17:00N 59°53' E 030°12'3 7.0
2018-Apr-24 16:30N 59°54' E 030°05'4 8.4
2018-Apr-24 16:00N 59°56' E 029°57'5 8.5
2018-Apr-24 15:28N 59°58' E 029°49'2 2.4
2018-Apr-24 14:49N 59°59' E 029°47'1 2.2
2018-Apr-24 14:30N 59°59' E 029°46'2 2.1
2018-Apr-24 13:46N 59°59' E 029°42'2 0.9
2018-Apr-24 11:43N 59°59' E 029°46'2 8.6
2018-Apr-24 11:30N 59°57' E 029°49'4 8.0
2018-Apr-24 10:59N 59°56' E 029°57'4 8.0
2018-Apr-24 10:30N 59°55' E 030°04'4 7.5
2018-Apr-24 10:00N 59°53' E 030°11'1 2.6
2018-Apr-24 09:31N 59°54' E 030°13'0 0.2
2018-Apr-24 08:58N 59°54' E 030°13'0 0.3
2018-Apr-24 08:26N 59°54' E 030°14'0 0.0
2018-Apr-24 08:00N 59°54' E 030°14'1 2.0
2018-Apr-24 07:30N 59°53' E 030°14'0 0.0
2018-Apr-24 07:00N 59°53' E 030°14'0 0.0
2018-Apr-24 06:31N 59°53' E 030°14'0 0.0
2018-Apr-24 06:00N 59°53' E 030°14'1 1.5
2018-Apr-24 05:29N 59°53' E 030°14'0 0.1
2018-Apr-24 05:00N 59°54' E 030°14'1 1.4
2018-Apr-24 04:31N 59°53' E 030°13'0 0.8
2018-Apr-24 03:59N 59°53' E 030°12'0 0.0
2018-Apr-24 03:30N 59°53' E 030°12'1 1.1
2018-Apr-24 03:00N 59°53' E 030°11'1 2.4
2018-Apr-24 02:30N 59°53' E 030°14'0 0.5
2018-Apr-24 02:00N 59°53' E 030°14'0 0.0
2018-Apr-24 01:30N 59°53' E 030°14'0 0.0
2018-Apr-24 00:58N 59°53' E 030°14'0 0.0
2018-Apr-24 00:30N 59°53' E 030°14'0 0.0
2018-Apr-24 00:01N 59°53' E 030°14'0 0.0
2018-Apr-23 23:31N 59°53' E 030°14'0 0.0
2018-Apr-23 23:00N 59°53' E 030°14'0 0.0
2018-Apr-23 22:30N 59°53' E 030°14'0 0.0
2018-Apr-23 22:01N 59°53' E 030°14'0 0.0
2018-Apr-23 21:30N 59°53' E 030°14'0 0.0
2018-Apr-23 21:00N 59°53' E 030°14'0 0.0
2018-Apr-23 20:25N 59°53' E 030°14'0 0.0
2018-Apr-23 19:59N 59°53' E 030°14'0 0.0
2018-Apr-23 19:28N 59°53' E 030°14'0 0.0
2018-Apr-23 19:00N 59°53' E 030°14'0 0.0
2018-Apr-23 18:30N 59°53' E 030°14'0 0.0
2018-Apr-23 17:59N 59°53' E 030°14'0 0.0
2018-Apr-23 17:29N 59°53' E 030°14'1 1.2
2018-Apr-23 17:00N 59°53' E 030°14'0 0.8
2018-Apr-23 16:30N 59°53' E 030°14'1 2.4
2018-Apr-23 15:54N 59°53' E 030°11'1 2.2
2018-Apr-23 15:30N 59°53' E 030°13'1 2.0
2018-Apr-23 15:00N 59°52' E 030°12'1 1.2
2018-Apr-23 14:28N 59°53' E 030°12'1 1.9
2018-Apr-23 14:00N 59°53' E 030°13'1 1.4
2018-Apr-23 13:30N 59°53' E 030°14'0 0.0
2018-Apr-23 12:57N 59°53' E 030°14'0 0.0
2018-Apr-23 12:29N 59°53' E 030°14'0 0.0
2018-Apr-23 11:58N 59°53' E 030°14'0 0.0
2018-Apr-23 11:30N 59°53' E 030°14'0 0.0
2018-Apr-23 10:59N 59°53' E 030°14'0 0.0
2018-Apr-23 10:29N 59°53' E 030°14'0 0.0
2018-Apr-23 10:00N 59°53' E 030°14'0 0.0
2018-Apr-23 09:30N 59°53' E 030°14'0 0.0
2018-Apr-23 08:59N 59°53' E 030°14'0 0.0
2018-Apr-23 08:29N 59°53' E 030°14'0 0.0
2018-Apr-23 08:00N 59°53' E 030°14'0 0.0
2018-Apr-23 07:30N 59°53' E 030°14'0 0.0
2018-Apr-23 07:00N 59°53' E 030°14'0 0.0
2018-Apr-23 06:30N 59°53' E 030°14'0 0.0
2018-Apr-23 06:00N 59°53' E 030°14'0 0.0
2018-Apr-23 05:30N 59°53' E 030°14'0 0.0
2018-Apr-23 05:01N 59°53' E 030°14'0 0.0
2018-Apr-23 04:30N 59°53' E 030°14'0 0.0
2018-Apr-23 04:00N 59°53' E 030°14'0 0.0
2018-Apr-23 03:31N 59°53' E 030°14'0 0.0
2018-Apr-23 03:00N 59°53' E 030°14'0 0.0
2018-Apr-23 02:30N 59°53' E 030°14'0 0.0
2018-Apr-23 02:00N 59°53' E 030°14'0 0.0
2018-Apr-23 01:30N 59°53' E 030°14'0 0.0
2018-Apr-23 00:57N 59°53' E 030°14'0 0.0
2018-Apr-23 00:31N 59°53' E 030°14'0 0.0
2018-Apr-23 00:00N 59°53' E 030°14'0 0.0
2018-Apr-22 23:30N 59°53' E 030°14'0 0.0
2018-Apr-22 23:00N 59°53' E 030°14'0 0.0
2018-Apr-22 22:30N 59°53' E 030°14'0 0.0
2018-Apr-22 22:00N 59°53' E 030°14'0 0.0
2018-Apr-22 21:30N 59°53' E 030°14'0 0.0
2018-Apr-22 21:00N 59°53' E 030°14'0 0.0
2018-Apr-22 20:30N 59°53' E 030°14'0 0.0
2018-Apr-22 20:01N 59°53' E 030°14'0 0.0
2018-Apr-22 19:30N 59°53' E 030°14'0 0.0
2018-Apr-22 19:00N 59°53' E 030°14'0 0.0
2018-Apr-22 18:30N 59°53' E 030°14'0 0.0
2018-Apr-22 18:00N 59°53' E 030°14'0 0.0
2018-Apr-22 17:30N 59°53' E 030°14'0 0.0
2018-Apr-22 17:00N 59°53' E 030°14'0 0.0
2018-Apr-22 16:30N 59°53' E 030°14'0 0.0
2018-Apr-22 16:00N 59°53' E 030°14'0 0.0
2018-Apr-22 15:30N 59°53' E 030°14'1 2.8
2018-Apr-22 15:01N 59°53' E 030°12'3 5.0
2018-Apr-22 14:30N 59°54' E 030°07'4 8.7
2018-Apr-22 14:00N 59°56' E 029°59'5 9.1
2018-Apr-22 13:29N 59°57' E 029°50'2 1.4
2018-Apr-22 11:50N 59°59' E 029°46'1 4.5
2018-Apr-22 11:30N 59°58' E 029°48'3 5.5
2018-Apr-22 11:01N 59°57' E 029°53'3 5.6
2018-Apr-22 10:30N 59°56' E 029°59'3 5.6
2018-Apr-22 10:00N 59°55' E 030°04'3 5.7
2018-Apr-22 09:30N 59°53' E 030°09'2 3.9
2018-Apr-22 09:00N 59°53' E 030°13'1 1.3
2018-Apr-22 08:31N 59°53' E 030°13'1 1.4
2018-Apr-22 07:59N 59°53' E 030°13'1 1.4
2018-Apr-22 07:30N 59°53' E 030°14'0 0.5
2018-Apr-22 07:00N 59°53' E 030°14'0 0.0
2018-Apr-22 06:30N 59°53' E 030°14'0 0.0
2018-Apr-22 06:00N 59°53' E 030°14'0 0.0
2018-Apr-22 05:30N 59°53' E 030°14'0 0.0
2018-Apr-22 05:00N 59°53' E 030°14'0 0.0
2018-Apr-22 04:29N 59°53' E 030°14'0 0.0
2018-Apr-22 04:00N 59°53' E 030°14'0 0.0
2018-Apr-22 03:30N 59°53' E 030°14'1 2.3
2018-Apr-22 03:00N 59°53' E 030°12'0 0.2
2018-Apr-22 02:30N 59°53' E 030°12'1 1.7
2018-Apr-22 02:00N 59°53' E 030°14'0 0.7
2018-Apr-22 01:30N 59°53' E 030°14'0 0.0
2018-Apr-22 01:00N 59°53' E 030°14'0 0.0
2018-Apr-22 00:31N 59°53' E 030°14'0 0.0
2018-Apr-22 00:00N 59°53' E 030°14'0 0.0
2018-Apr-21 23:30N 59°53' E 030°14'0 0.0
2018-Apr-21 23:00N 59°53' E 030°14'0 0.0
2018-Apr-21 22:30N 59°53' E 030°14'0 0.0
2018-Apr-21 22:00N 59°53' E 030°14'0 0.0
2018-Apr-21 21:30N 59°53' E 030°14'0 0.0
2018-Apr-21 21:01N 59°53' E 030°14'0 0.0
2018-Apr-21 20:30N 59°53' E 030°14'0 0.0
2018-Apr-21 20:00N 59°53' E 030°14'0 0.0
2018-Apr-21 19:30N 59°53' E 030°14'0 0.0
2018-Apr-21 19:00N 59°53' E 030°14'0 0.0
2018-Apr-21 18:30N 59°53' E 030°14'0 0.0
2018-Apr-21 18:00N 59°53' E 030°14'0 0.0
2018-Apr-21 17:30N 59°53' E 030°14'0 0.0
2018-Apr-21 17:00N 59°53' E 030°14'0 0.0
2018-Apr-21 16:30N 59°53' E 030°14'0 0.0
2018-Apr-21 15:58N 59°53' E 030°14'0 0.0
2018-Apr-21 15:30N 59°53' E 030°14'1 1.7
2018-Apr-21 15:00N 59°53' E 030°13'1 1.7
2018-Apr-21 14:30N 59°53' E 030°14'0 0.0
2018-Apr-21 14:00N 59°53' E 030°14'0 0.0
2018-Apr-21 13:24N 59°53' E 030°14'0 0.0
2018-Apr-21 13:00N 59°53' E 030°14'0 0.0
2018-Apr-21 12:30N 59°53' E 030°14'0 0.0
2018-Apr-21 12:00N 59°53' E 030°14'0 0.0
2018-Apr-21 11:30N 59°53' E 030°14'0 0.0
2018-Apr-21 11:00N 59°53' E 030°14'0 0.0
2018-Apr-21 10:30N 59°53' E 030°14'0 0.0
2018-Apr-21 09:54N 59°53' E 030°14'0 0.0
2018-Apr-21 09:30N 59°53' E 030°14'0 0.0
2018-Apr-21 08:57N 59°53' E 030°14'0 0.0
2018-Apr-21 08:29N 59°53' E 030°14'0 0.0
2018-Apr-21 08:01N 59°53' E 030°14'0 0.0
2018-Apr-21 07:30N 59°53' E 030°14'0 0.0
2018-Apr-21 07:00N 59°53' E 030°14'0 0.0
2018-Apr-21 06:30N 59°53' E 030°14'0 0.0
2018-Apr-21 06:00N 59°53' E 030°14'0 0.0
2018-Apr-21 05:30N 59°53' E 030°14'0 0.0
2018-Apr-21 05:00N 59°53' E 030°14'0 0.0
2018-Apr-21 04:30N 59°53' E 030°14'0 0.0
2018-Apr-21 03:56N 59°53' E 030°14'0 0.0
2018-Apr-21 03:28N 59°53' E 030°14'0 0.0
2018-Apr-21 03:00N 59°53' E 030°14'0 0.0
2018-Apr-21 02:20N 59°53' E 030°14'0 0.0
2018-Apr-21 01:38N 59°53' E 030°14'0 0.0
2018-Apr-21 01:27N 59°53' E 030°14'0 0.0
2018-Apr-21 00:50N 59°53' E 030°14'0 0.0
2018-Apr-21 00:28N 59°53' E 030°14'0 0.0
2018-Apr-21 00:00N 59°53' E 030°14'0 0.0
2018-Apr-20 23:30N 59°53' E 030°14'0 0.0
2018-Apr-20 23:00N 59°53' E 030°14'0 0.0
2018-Apr-20 22:30N 59°53' E 030°14'0 0.0
2018-Apr-20 22:00N 59°53' E 030°14'0 0.0
2018-Apr-20 21:30N 59°53' E 030°14'0 0.0
2018-Apr-20 20:57N 59°53' E 030°14'0 0.0
2018-Apr-20 20:30N 59°53' E 030°14'0 0.0
2018-Apr-20 20:00N 59°53' E 030°14'0 0.0
2018-Apr-20 19:30N 59°53' E 030°14'0 0.0
2018-Apr-20 19:00N 59°53' E 030°14'0 0.0
2018-Apr-20 18:27N 59°53' E 030°14'0 0.0
2018-Apr-20 17:56N 59°53' E 030°14'0 0.0
2018-Apr-20 17:29N 59°53' E 030°14'1 2.7
2018-Apr-20 16:59N 59°53' E 030°12'1 2.5
2018-Apr-20 16:31N 59°52' E 030°13'0 0.0
2018-Apr-20 16:01N 59°52' E 030°13'1 2.0
2018-Apr-20 15:28N 59°53' E 030°11'0 0.1
2018-Apr-20 15:00N 59°53' E 030°11'1 2.0
2018-Apr-20 14:30N 59°53' E 030°13'0 0.0
2018-Apr-20 14:00N 59°53' E 030°13'0 0.0
2018-Apr-20 13:30N 59°53' E 030°13'0 0.0
2018-Apr-20 13:00N 59°53' E 030°13'0 0.0
2018-Apr-20 12:30N 59°53' E 030°13'0 0.0
2018-Apr-20 12:00N 59°53' E 030°13'0 0.0
2018-Apr-20 11:30N 59°53' E 030°13'0 0.0
2018-Apr-20 11:00N 59°53' E 030°13'0 0.0
2018-Apr-20 10:30N 59°53' E 030°13'0 0.0
2018-Apr-20 10:00N 59°53' E 030°13'1 1.1
2018-Apr-20 09:30N 59°53' E 030°14'0 0.0
2018-Apr-20 09:00N 59°53' E 030°14'0 0.0
2018-Apr-20 08:30N 59°53' E 030°14'0 0.0
2018-Apr-20 07:59N 59°53' E 030°14'0 0.0
2018-Apr-20 07:30N 59°53' E 030°14'0 0.0
2018-Apr-20 06:56N 59°53' E 030°14'0 0.0
2018-Apr-20 06:30N 59°53' E 030°14'0 0.0
2018-Apr-20 06:00N 59°53' E 030°14'0 0.0
2018-Apr-20 05:27N 59°53' E 030°14'0 0.0
2018-Apr-20 04:59N 59°53' E 030°14'0 0.0
2018-Apr-20 04:28N 59°53' E 030°14'0 0.0
2018-Apr-20 03:58N 59°53' E 030°14'2 3.3
2018-Apr-20 03:30N 59°53' E 030°11'1 1.8
2018-Apr-20 03:00N 59°53' E 030°10'2 4.1
2018-Apr-20 02:30N 59°53' E 030°14'0 0.3
2018-Apr-20 01:26N 59°53' E 030°14'0 0.0
2018-Apr-20 00:58N 59°53' E 030°14'0 0.0
2018-Apr-20 00:30N 59°53' E 030°14'0 0.0
2018-Apr-20 00:00N 59°53' E 030°14'0 0.0
2018-Apr-19 23:30N 59°53' E 030°14'0 0.0
2018-Apr-19 23:00N 59°53' E 030°14'0 0.0
2018-Apr-19 22:30N 59°53' E 030°14'0 0.0
2018-Apr-19 22:01N 59°53' E 030°14'0 0.0
2018-Apr-19 21:31N 59°53' E 030°14'0 0.0
2018-Apr-19 20:53N 59°53' E 030°14'0 0.0
2018-Apr-19 20:28N 59°53' E 030°14'0 0.0
2018-Apr-19 19:55N 59°53' E 030°14'0 0.0
2018-Apr-19 19:23N 59°53' E 030°14'0 0.0
2018-Apr-19 18:46N 59°53' E 030°14'0 0.0
2018-Apr-19 18:30N 59°53' E 030°14'0 0.0
2018-Apr-19 17:47N 59°53' E 030°14'0 0.0
2018-Apr-19 16:57N 59°53' E 030°14'0 0.0
2018-Apr-19 16:30N 59°53' E 030°14'0 0.0
2018-Apr-19 16:00N 59°53' E 030°14'0 0.0
2018-Apr-19 15:24N 59°53' E 030°14'0 0.0
2018-Apr-19 14:59N 59°53' E 030°14'0 0.0
2018-Apr-19 14:30N 59°53' E 030°14'0 0.0
2018-Apr-19 13:58N 59°53' E 030°14'0 0.0
2018-Apr-19 13:29N 59°53' E 030°14'0 0.0
2018-Apr-19 12:59N 59°53' E 030°14'0 0.0
2018-Apr-19 12:30N 59°53' E 030°14'0 0.0
2018-Apr-19 11:58N 59°53' E 030°14'0 0.0
2018-Apr-19 11:30N 59°53' E 030°14'0 0.0
2018-Apr-19 11:01N 59°53' E 030°14'0 0.0
2018-Apr-19 10:30N 59°53' E 030°14'0 0.0
2018-Apr-19 10:00N 59°53' E 030°14'0 0.0
2018-Apr-19 09:16N 59°53' E 030°14'0 0.0
2018-Apr-19 08:58N 59°53' E 030°14'0 0.0
2018-Apr-19 08:28N 59°53' E 030°14'0 0.0
2018-Apr-19 08:00N 59°53' E 030°14'0 0.0
2018-Apr-19 07:30N 59°53' E 030°14'0 0.0
2018-Apr-19 07:00N 59°53' E 030°14'0 0.0
2018-Apr-19 06:30N 59°53' E 030°14'0 0.0
2018-Apr-19 05:58N 59°53' E 030°14'0 0.0
2018-Apr-19 05:30N 59°53' E 030°14'0 0.0
2018-Apr-19 04:58N 59°53' E 030°14'0 0.0
2018-Apr-19 04:30N 59°53' E 030°14'0 0.0
2018-Apr-19 03:58N 59°53' E 030°14'0 0.0
2018-Apr-19 03:26N 59°53' E 030°14'0 0.0
2018-Apr-19 02:58N 59°53' E 030°14'1 2.9
2018-Apr-19 02:30N 59°53' E 030°12'1 1.6
2018-Apr-19 01:48N 59°53' E 030°09'1 5.0
2018-Apr-19 01:30N 59°53' E 030°12'1 2.2
2018-Apr-19 01:00N 59°53' E 030°14'0 0.0
2018-Apr-19 00:30N 59°53' E 030°14'0 0.0
2018-Apr-19 00:00N 59°53' E 030°14'0 0.0
2018-Apr-18 23:30N 59°53' E 030°14'0 0.0
2018-Apr-18 23:00N 59°53' E 030°14'0 0.0
2018-Apr-18 22:30N 59°53' E 030°14'0 0.0
2018-Apr-18 22:01N 59°53' E 030°14'0 0.0
2018-Apr-18 21:30N 59°53' E 030°14'0 0.0
2018-Apr-18 21:00N 59°53' E 030°14'0 0.0
2018-Apr-18 19:45N 59°53' E 030°14'0 0.0
2018-Apr-18 19:30N 59°53' E 030°14'0 0.0
2018-Apr-18 18:49N 59°53' E 030°14'0 0.0
2018-Apr-18 18:29N 59°53' E 030°14'0 0.0
2018-Apr-18 18:00N 59°53' E 030°14'0 0.0
2018-Apr-18 17:28N 59°53' E 030°14'0 0.0
2018-Apr-18 16:59N 59°53' E 030°14'0 0.0
2018-Apr-18 16:29N 59°53' E 030°14'0 0.0
2018-Apr-18 16:00N 59°53' E 030°14'0 0.0
2018-Apr-18 15:30N 59°53' E 030°14'0 0.0
2018-Apr-18 15:00N 59°53' E 030°14'0 0.0
2018-Apr-18 14:30N 59°53' E 030°14'0 0.0
2018-Apr-18 13:56N 59°53' E 030°14'0 0.0
2018-Apr-18 13:30N 59°53' E 030°14'0 0.0
2018-Apr-18 13:00N 59°53' E 030°14'0 0.0
2018-Apr-18 12:29N 59°53' E 030°14'0 0.0
2018-Apr-18 12:00N 59°53' E 030°14'0 0.0
2018-Apr-18 11:23N 59°53' E 030°14'0 0.0
2018-Apr-18 10:55N 59°53' E 030°14'0 0.0
2018-Apr-18 10:30N 59°53' E 030°14'0 0.0
2018-Apr-18 10:00N 59°53' E 030°14'0 0.0
2018-Apr-18 09:30N 59°53' E 030°14'0 0.0
2018-Apr-18 09:00N 59°53' E 030°14'0 0.0
2018-Apr-18 08:29N 59°53' E 030°14'0 0.0
2018-Apr-18 08:00N 59°53' E 030°14'0 0.0
2018-Apr-18 07:30N 59°53' E 030°14'0 0.0
2018-Apr-18 06:58N 59°53' E 030°14'0 0.0
2018-Apr-18 06:29N 59°53' E 030°14'1 1.3
2018-Apr-18 06:00N 59°53' E 030°13'1 1.8
2018-Apr-18 05:30N 59°52' E 030°12'0 0.1
2018-Apr-18 05:01N 59°52' E 030°12'1 1.1
2018-Apr-18 04:29N 59°53' E 030°12'1 0.8
2018-Apr-18 03:53N 59°53' E 030°11'2 2.1
2018-Apr-18 03:04N 59°53' E 030°14'0 0.1
2018-Apr-18 02:59N 59°53' E 030°14'0 0.0
2018-Apr-18 02:27N 59°53' E 030°14'0 0.0
2018-Apr-18 01:59N 59°53' E 030°14'0 0.0
2018-Apr-18 01:27N 59°53' E 030°14'0 0.0
2018-Apr-18 00:59N 59°53' E 030°14'0 0.0
2018-Apr-18 00:30N 59°53' E 030°14'0 0.0
2018-Apr-18 00:00N 59°53' E 030°14'0 0.0
2018-Apr-17 23:30N 59°53' E 030°14'0 0.0
2018-Apr-17 23:00N 59°53' E 030°14'0 0.0
2018-Apr-17 22:30N 59°53' E 030°14'0 0.0
2018-Apr-17 22:01N 59°53' E 030°14'0 0.0
2018-Apr-17 21:30N 59°53' E 030°14'0 0.0
2018-Apr-17 21:01N 59°53' E 030°14'0 0.0
2018-Apr-17 20:12N 59°53' E 030°14'0 0.0
2018-Apr-17 19:59N 59°53' E 030°14'0 0.0
2018-Apr-17 19:11N 59°53' E 030°14'0 0.0
2018-Apr-17 18:54N 59°53' E 030°14'0 0.0
2018-Apr-17 18:29N 59°53' E 030°14'0 0.0
2018-Apr-17 17:59N 59°53' E 030°14'0 0.0
2018-Apr-17 16:45N 59°53' E 030°14'0 0.0
2018-Apr-17 16:27N 59°53' E 030°14'1 3.1
2018-Apr-17 16:00N 59°53' E 030°11'1 1.5
2018-Apr-17 15:29N 59°52' E 030°13'0 0.6
2018-Apr-17 14:59N 59°52' E 030°12'0 0.0
2018-Apr-17 14:30N 59°52' E 030°12'1 1.8
2018-Apr-17 14:01N 59°53' E 030°11'2 3.3
2018-Apr-17 13:30N 59°53' E 030°14'0 0.0
2018-Apr-17 12:59N 59°53' E 030°14'0 0.0
2018-Apr-17 12:27N 59°53' E 030°14'0 0.0
2018-Apr-17 11:54N 59°53' E 030°14'0 0.0
2018-Apr-17 11:22N 59°53' E 030°14'0 0.0
2018-Apr-17 10:47N 59°53' E 030°14'0 0.0
2018-Apr-17 10:30N 59°53' E 030°14'0 0.0
2018-Apr-17 10:00N 59°53' E 030°14'0 0.0
2018-Apr-17 09:30N 59°53' E 030°14'0 0.0
2018-Apr-17 08:59N 59°53' E 030°14'0 0.0
2018-Apr-17 08:30N 59°53' E 030°14'0 0.0
2018-Apr-17 08:00N 59°53' E 030°14'2 3.2
2018-Apr-17 07:30N 59°53' E 030°11'  
Track history (hours):
 
Tides and Currents Weather Stations Pressure Air Temp Water Temp Dewpoint Dewpoint Depression Visibility Wind Speed Wind Dir Waves Ship Positions

Grifon 5 #-

Last reported at 2018-Apr-27 06:30 UTC. Time now 2018-Apr-27 06:51 UTC.
Position N 59°53' E 030°14'.

Length 25 m.

Type: Ship. MMSI: 273311070.

Date/timePositionNaut miles runAvg speedWind from/ knotsBaromVisibWave heightAir tempDewpointWater temp
2018-Apr-27 06:30N 59°53' E 030°14'1 1.8
2018-Apr-27 05:59N 59°53' E 030°13'1 2.8
2018-Apr-27 05:30N 59°53' E 030°10'2 4.2
2018-Apr-27 04:59N 59°53' E 030°14'0 0.0
2018-Apr-27 04:27N 59°53' E 030°14'0 0.0
2018-Apr-27 04:00N 59°53' E 030°14'0 0.0
2018-Apr-27 03:29N 59°53' E 030°14'0 0.0
2018-Apr-27 03:00N 59°53' E 030°14'0 0.0
2018-Apr-27 02:29N 59°53' E 030°14'0 0.0
2018-Apr-27 01:59N 59°53' E 030°14'0 0.0
2018-Apr-27 01:30N 59°53' E 030°14'0 0.0
2018-Apr-27 00:59N 59°53' E 030°14'0 0.0
2018-Apr-27 00:30N 59°53' E 030°14'1 2.9
2018-Apr-26 23:58N 59°54' E 030°13'1 1.4
2018-Apr-26 23:30N 59°55' E 030°14'0 0.1
2018-Apr-26 23:00N 59°55' E 030°14'0 0.5
2018-Apr-26 22:30N 59°55' E 030°14'0 0.5
2018-Apr-26 22:00N 59°55' E 030°14'0 0.1
2018-Apr-26 21:30N 59°55' E 030°14'1 1.1
2018-Apr-26 21:00N 59°54' E 030°13'2 4.0
2018-Apr-26 20:29N 59°52' E 030°13'0 0.0
2018-Apr-26 19:59N 59°52' E 030°13'1 1.4
2018-Apr-26 19:22N 59°53' E 030°14'0 0.0
2018-Apr-26 18:53N 59°53' E 030°14'0 0.0
2018-Apr-26 18:20N 59°53' E 030°14'0 0.0
2018-Apr-26 17:53N 59°53' E 030°14'0 0.0
2018-Apr-26 17:28N 59°53' E 030°14'0 0.0
2018-Apr-26 17:00N 59°53' E 030°14'0 0.0
2018-Apr-26 16:29N 59°53' E 030°14'0 0.2
2018-Apr-26 15:56N 59°53' E 030°14'1 3.0
2018-Apr-26 15:28N 59°53' E 030°11'0 0.3
2018-Apr-26 15:00N 59°53' E 030°11'1 2.0
2018-Apr-26 14:31N 59°53' E 030°13'1 1.4
2018-Apr-26 13:59N 59°53' E 030°14'0 0.0
2018-Apr-26 13:30N 59°53' E 030°14'0 0.0
2018-Apr-26 13:00N 59°53' E 030°14'0 0.0
2018-Apr-26 12:25N 59°53' E 030°14'0 0.0
2018-Apr-26 11:58N 59°53' E 030°14'0 0.0
2018-Apr-26 11:30N 59°53' E 030°14'0 0.0
2018-Apr-26 10:58N 59°53' E 030°14'0 0.9
2018-Apr-26 10:29N 59°53' E 030°13'0 0.0
2018-Apr-26 10:00N 59°53' E 030°13'0 0.0
2018-Apr-26 09:30N 59°53' E 030°13'1 1.8
2018-Apr-26 09:00N 59°53' E 030°12'0 0.6
2018-Apr-26 08:29N 59°53' E 030°12'0 0.0
2018-Apr-26 08:00N 59°53' E 030°13'1 1.8
2018-Apr-26 07:30N 59°53' E 030°14'0 0.0
2018-Apr-26 07:00N 59°53' E 030°14'0 0.0
2018-Apr-26 06:30N 59°53' E 030°14'0 0.0
2018-Apr-26 06:00N 59°53' E 030°14'0 0.0
2018-Apr-26 05:30N 59°53' E 030°14'0 0.0
2018-Apr-26 05:00N 59°53' E 030°14'0 0.0
2018-Apr-26 04:30N 59°53' E 030°14'0 0.0
2018-Apr-26 04:00N 59°53' E 030°14'1 2.1
2018-Apr-26 03:30N 59°54' E 030°13'1 1.1
2018-Apr-26 03:00N 59°53' E 030°12'1 1.2
2018-Apr-26 02:29N 59°53' E 030°13'1 1.4
2018-Apr-26 02:00N 59°53' E 030°14'0 0.0
2018-Apr-26 01:30N 59°53' E 030°14'0 0.0
2018-Apr-26 01:00N 59°53' E 030°14'0 0.0
2018-Apr-26 00:30N 59°53' E 030°14'0 0.0
2018-Apr-26 00:01N 59°53' E 030°14'0 0.0
2018-Apr-25 23:30N 59°53' E 030°14'0 0.0
2018-Apr-25 22:55N 59°53' E 030°14'0 0.0
2018-Apr-25 22:30N 59°53' E 030°14'0 0.0
2018-Apr-25 22:00N 59°53' E 030°14'0 0.0
2018-Apr-25 21:30N 59°53' E 030°14'0 0.0
2018-Apr-25 20:59N 59°53' E 030°14'0 0.0
2018-Apr-25 20:31N 59°53' E 030°14'0 0.0
2018-Apr-25 20:00N 59°53' E 030°14'0 0.0
2018-Apr-25 19:29N 59°53' E 030°14'0 0.0
2018-Apr-25 19:00N 59°53' E 030°14'0 0.0
2018-Apr-25 18:30N 59°53' E 030°14'0 0.0
2018-Apr-25 18:00N 59°53' E 030°14'0 0.0
2018-Apr-25 17:27N 59°53' E 030°14'0 0.0
2018-Apr-25 17:00N 59°53' E 030°14'0 0.0
2018-Apr-25 16:27N 59°53' E 030°14'1 1.7
2018-Apr-25 16:00N 59°53' E 030°14'1 1.7
2018-Apr-25 15:30N 59°53' E 030°12'0 0.9
2018-Apr-25 15:00N 59°53' E 030°13'1 1.6
2018-Apr-25 14:31N 59°53' E 030°14'0 0.0
2018-Apr-25 13:59N 59°53' E 030°14'0 0.0
2018-Apr-25 13:30N 59°53' E 030°14'0 0.0
2018-Apr-25 12:59N 59°53' E 030°14'0 0.0
2018-Apr-25 12:29N 59°53' E 030°14'0 0.0
2018-Apr-25 12:00N 59°53' E 030°14'0 0.0
2018-Apr-25 11:30N 59°53' E 030°14'0 0.0
2018-Apr-25 10:59N 59°53' E 030°14'0 0.0
2018-Apr-25 10:29N 59°53' E 030°14'0 0.0
2018-Apr-25 10:00N 59°53' E 030°14'0 0.0
2018-Apr-25 09:28N 59°53' E 030°14'0 0.0
2018-Apr-25 08:59N 59°53' E 030°14'0 0.0
2018-Apr-25 08:30N 59°53' E 030°14'0 0.0
2018-Apr-25 08:00N 59°53' E 030°14'0 0.0
2018-Apr-25 07:30N 59°53' E 030°14'1 1.8
2018-Apr-25 07:00N 59°52' E 030°13'0 0.0
2018-Apr-25 06:30N 59°52' E 030°13'1 1.6
2018-Apr-25 06:00N 59°53' E 030°12'1 2.3
2018-Apr-25 05:26N 59°53' E 030°14'0 0.0
2018-Apr-25 05:00N 59°53' E 030°14'0 0.4
2018-Apr-25 04:30N 59°53' E 030°14'1 1.5
2018-Apr-25 04:00N 59°53' E 030°13'0 0.6
2018-Apr-25 03:30N 59°53' E 030°14'0 0.5
2018-Apr-25 02:57N 59°53' E 030°14'1 1.1
2018-Apr-25 02:26N 59°53' E 030°14'0 0.0
2018-Apr-25 01:59N 59°53' E 030°14'0 0.0
2018-Apr-25 01:30N 59°53' E 030°14'0 0.0
2018-Apr-25 01:00N 59°53' E 030°14'0 0.0
2018-Apr-25 00:27N 59°53' E 030°14'0 0.0
2018-Apr-25 00:00N 59°53' E 030°14'0 0.0
2018-Apr-24 23:30N 59°53' E 030°14'0 0.0
2018-Apr-24 22:59N 59°53' E 030°14'0 0.0
2018-Apr-24 22:30N 59°53' E 030°14'0 0.0
2018-Apr-24 22:00N 59°53' E 030°14'0 0.0
2018-Apr-24 21:30N 59°53' E 030°14'0 0.0
2018-Apr-24 21:00N 59°53' E 030°14'0 0.0
2018-Apr-24 20:30N 59°53' E 030°14'0 0.0
2018-Apr-24 20:00N 59°53' E 030°14'0 0.1
2018-Apr-24 19:30N 59°53' E 030°14'0 0.0
2018-Apr-24 19:00N 59°53' E 030°14'0 0.0
2018-Apr-24 18:31N 59°53' E 030°14'0 0.0
2018-Apr-24 18:00N 59°53' E 030°14'0 0.4
2018-Apr-24 17:30N 59°53' E 030°14'1 2.3
2018-Apr-24 17:00N 59°53' E 030°12'3 7.0
2018-Apr-24 16:30N 59°54' E 030°05'4 8.4
2018-Apr-24 16:00N 59°56' E 029°57'5 8.5
2018-Apr-24 15:28N 59°58' E 029°49'2 2.4
2018-Apr-24 14:49N 59°59' E 029°47'1 2.2
2018-Apr-24 14:30N 59°59' E 029°46'2 2.1
2018-Apr-24 13:46N 59°59' E 029°42'2 0.9
2018-Apr-24 11:43N 59°59' E 029°46'2 8.6
2018-Apr-24 11:30N 59°57' E 029°49'4 8.0
2018-Apr-24 10:59N 59°56' E 029°57'4 8.0
2018-Apr-24 10:30N 59°55' E 030°04'4 7.5
2018-Apr-24 10:00N 59°53' E 030°11'1 2.6
2018-Apr-24 09:31N 59°54' E 030°13'0 0.2
2018-Apr-24 08:58N 59°54' E 030°13'0 0.3
2018-Apr-24 08:26N 59°54' E 030°14'0 0.0
2018-Apr-24 08:00N 59°54' E 030°14'1 2.0
2018-Apr-24 07:30N 59°53' E 030°14'0 0.0
2018-Apr-24 07:00N 59°53' E 030°14'0 0.0
2018-Apr-24 06:31N 59°53' E 030°14'0 0.0
2018-Apr-24 06:00N 59°53' E 030°14'1 1.5
2018-Apr-24 05:29N 59°53' E 030°14'0 0.1
2018-Apr-24 05:00N 59°54' E 030°14'1 1.4
2018-Apr-24 04:31N 59°53' E 030°13'0 0.8
2018-Apr-24 03:59N 59°53' E 030°12'0 0.0
2018-Apr-24 03:30N 59°53' E 030°12'1 1.1
2018-Apr-24 03:00N 59°53' E 030°11'1 2.4
2018-Apr-24 02:30N 59°53' E 030°14'0 0.5
2018-Apr-24 02:00N 59°53' E 030°14'0 0.0
2018-Apr-24 01:30N 59°53' E 030°14'0 0.0
2018-Apr-24 00:58N 59°53' E 030°14'0 0.0
2018-Apr-24 00:30N 59°53' E 030°14'0 0.0
2018-Apr-24 00:01N 59°53' E 030°14'0 0.0
2018-Apr-23 23:31N 59°53' E 030°14'0 0.0
2018-Apr-23 23:00N 59°53' E 030°14'0 0.0
2018-Apr-23 22:30N 59°53' E 030°14'0 0.0
2018-Apr-23 22:01N 59°53' E 030°14'0 0.0
2018-Apr-23 21:30N 59°53' E 030°14'0 0.0
2018-Apr-23 21:00N 59°53' E 030°14'0 0.0
2018-Apr-23 20:25N 59°53' E 030°14'0 0.0
2018-Apr-23 19:59N 59°53' E 030°14'0 0.0
2018-Apr-23 19:28N 59°53' E 030°14'0 0.0
2018-Apr-23 19:00N 59°53' E 030°14'0 0.0
2018-Apr-23 18:30N 59°53' E 030°14'0 0.0
2018-Apr-23 17:59N 59°53' E 030°14'0 0.0
2018-Apr-23 17:29N 59°53' E 030°14'1 1.2
2018-Apr-23 17:00N 59°53' E 030°14'0 0.8
2018-Apr-23 16:30N 59°53' E 030°14'1 2.4
2018-Apr-23 15:54N 59°53' E 030°11'1 2.2
2018-Apr-23 15:30N 59°53' E 030°13'1 2.0
2018-Apr-23 15:00N 59°52' E 030°12'1 1.2
2018-Apr-23 14:28N 59°53' E 030°12'1 1.9
2018-Apr-23 14:00N 59°53' E 030°13'1 1.4
2018-Apr-23 13:30N 59°53' E 030°14'0 0.0
2018-Apr-23 12:57N 59°53' E 030°14'0 0.0
2018-Apr-23 12:29N 59°53' E 030°14'0 0.0
2018-Apr-23 11:58N 59°53' E 030°14'0 0.0
2018-Apr-23 11:30N 59°53' E 030°14'0 0.0
2018-Apr-23 10:59N 59°53' E 030°14'0 0.0
2018-Apr-23 10:29N 59°53' E 030°14'0 0.0
2018-Apr-23 10:00N 59°53' E 030°14'0 0.0
2018-Apr-23 09:30N 59°53' E 030°14'0 0.0
2018-Apr-23 08:59N 59°53' E 030°14'0 0.0
2018-Apr-23 08:29N 59°53' E 030°14'0 0.0
2018-Apr-23 08:00N 59°53' E 030°14'0 0.0
2018-Apr-23 07:30N 59°53' E 030°14'0 0.0
2018-Apr-23 07:00N 59°53' E 030°14'0 0.0
2018-Apr-23 06:30N 59°53' E 030°14'0 0.0
2018-Apr-23 06:00N 59°53' E 030°14'0 0.0
2018-Apr-23 05:30N 59°53' E 030°14'0 0.0
2018-Apr-23 05:01N 59°53' E 030°14'0 0.0
2018-Apr-23 04:30N 59°53' E 030°14'0 0.0
2018-Apr-23 04:00N 59°53' E 030°14'0 0.0
2018-Apr-23 03:31N 59°53' E 030°14'0 0.0
2018-Apr-23 03:00N 59°53' E 030°14'0 0.0
2018-Apr-23 02:30N 59°53' E 030°14'0 0.0
2018-Apr-23 02:00N 59°53' E 030°14'0 0.0
2018-Apr-23 01:30N 59°53' E 030°14'0 0.0
2018-Apr-23 00:57N 59°53' E 030°14'0 0.0
2018-Apr-23 00:31N 59°53' E 030°14'0 0.0
2018-Apr-23 00:00N 59°53' E 030°14'0 0.0
2018-Apr-22 23:30N 59°53' E 030°14'0 0.0
2018-Apr-22 23:00N 59°53' E 030°14'0 0.0
2018-Apr-22 22:30N 59°53' E 030°14'0 0.0
2018-Apr-22 22:00N 59°53' E 030°14'0 0.0
2018-Apr-22 21:30N 59°53' E 030°14'0 0.0
2018-Apr-22 21:00N 59°53' E 030°14'0 0.0
2018-Apr-22 20:30N 59°53' E 030°14'0 0.0
2018-Apr-22 20:01N 59°53' E 030°14'0 0.0
2018-Apr-22 19:30N 59°53' E 030°14'0 0.0
2018-Apr-22 19:00N 59°53' E 030°14'0 0.0
2018-Apr-22 18:30N 59°53' E 030°14'0 0.0
2018-Apr-22 18:00N 59°53' E 030°14'0 0.0
2018-Apr-22 17:30N 59°53' E 030°14'0 0.0
2018-Apr-22 17:00N 59°53' E 030°14'0 0.0
2018-Apr-22 16:30N 59°53' E 030°14'0 0.0
2018-Apr-22 16:00N 59°53' E 030°14'0 0.0
2018-Apr-22 15:30N 59°53' E 030°14'1 2.8
2018-Apr-22 15:01N 59°53' E 030°12'3 5.0
2018-Apr-22 14:30N 59°54' E 030°07'4 8.7
2018-Apr-22 14:00N 59°56' E 029°59'5 9.1
2018-Apr-22 13:29N 59°57' E 029°50'2 1.4
2018-Apr-22 11:50N 59°59' E 029°46'1 4.5
2018-Apr-22 11:30N 59°58' E 029°48'3 5.5
2018-Apr-22 11:01N 59°57' E 029°53'3 5.6
2018-Apr-22 10:30N 59°56' E 029°59'3 5.6
2018-Apr-22 10:00N 59°55' E 030°04'3 5.7
2018-Apr-22 09:30N 59°53' E 030°09'2 3.9
2018-Apr-22 09:00N 59°53' E 030°13'1 1.3
2018-Apr-22 08:31N 59°53' E 030°13'1 1.4
2018-Apr-22 07:59N 59°53' E 030°13'1 1.4
2018-Apr-22 07:30N 59°53' E 030°14'0 0.5
2018-Apr-22 07:00N 59°53' E 030°14'0 0.0
2018-Apr-22 06:30N 59°53' E 030°14'0 0.0
2018-Apr-22 06:00N 59°53' E 030°14'0 0.0
2018-Apr-22 05:30N 59°53' E 030°14'0 0.0
2018-Apr-22 05:00N 59°53' E 030°14'0 0.0
2018-Apr-22 04:29N 59°53' E 030°14'0 0.0
2018-Apr-22 04:00N 59°53' E 030°14'0 0.0
2018-Apr-22 03:30N 59°53' E 030°14'1 2.3
2018-Apr-22 03:00N 59°53' E 030°12'0 0.2
2018-Apr-22 02:30N 59°53' E 030°12'1 1.7
2018-Apr-22 02:00N 59°53' E 030°14'0 0.7
2018-Apr-22 01:30N 59°53' E 030°14'0 0.0
2018-Apr-22 01:00N 59°53' E 030°14'0 0.0
2018-Apr-22 00:31N 59°53' E 030°14'0 0.0
2018-Apr-22 00:00N 59°53' E 030°14'0 0.0
2018-Apr-21 23:30N 59°53' E 030°14'0 0.0
2018-Apr-21 23:00N 59°53' E 030°14'0 0.0
2018-Apr-21 22:30N 59°53' E 030°14'0 0.0
2018-Apr-21 22:00N 59°53' E 030°14'0 0.0
2018-Apr-21 21:30N 59°53' E 030°14'0 0.0
2018-Apr-21 21:01N 59°53' E 030°14'0 0.0
2018-Apr-21 20:30N 59°53' E 030°14'0 0.0
2018-Apr-21 20:00N 59°53' E 030°14'0 0.0
2018-Apr-21 19:30N 59°53' E 030°14'0 0.0
2018-Apr-21 19:00N 59°53' E 030°14'0 0.0
2018-Apr-21 18:30N 59°53' E 030°14'0 0.0
2018-Apr-21 18:00N 59°53' E 030°14'0 0.0
2018-Apr-21 17:30N 59°53' E 030°14'0 0.0
2018-Apr-21 17:00N 59°53' E 030°14'0 0.0
2018-Apr-21 16:30N 59°53' E 030°14'0 0.0
2018-Apr-21 15:58N 59°53' E 030°14'0 0.0
2018-Apr-21 15:30N 59°53' E 030°14'1 1.7
2018-Apr-21 15:00N 59°53' E 030°13'1 1.7
2018-Apr-21 14:30N 59°53' E 030°14'0 0.0
2018-Apr-21 14:00N 59°53' E 030°14'0 0.0
2018-Apr-21 13:24N 59°53' E 030°14'0 0.0
2018-Apr-21 13:00N 59°53' E 030°14'0 0.0
2018-Apr-21 12:30N 59°53' E 030°14'0 0.0
2018-Apr-21 12:00N 59°53' E 030°14'0 0.0
2018-Apr-21 11:30N 59°53' E 030°14'0 0.0
2018-Apr-21 11:00N 59°53' E 030°14'0 0.0
2018-Apr-21 10:30N 59°53' E 030°14'0 0.0
2018-Apr-21 09:54N 59°53' E 030°14'0 0.0
2018-Apr-21 09:30N 59°53' E 030°14'0 0.0
2018-Apr-21 08:57N 59°53' E 030°14'0 0.0
2018-Apr-21 08:29N 59°53' E 030°14'0 0.0
2018-Apr-21 08:01N 59°53' E 030°14'0 0.0
2018-Apr-21 07:30N 59°53' E 030°14'0 0.0
2018-Apr-21 07:00N 59°53' E 030°14'0 0.0
2018-Apr-21 06:30N 59°53' E 030°14'0 0.0
2018-Apr-21 06:00N 59°53' E 030°14'0 0.0
2018-Apr-21 05:30N 59°53' E 030°14'0 0.0
2018-Apr-21 05:00N 59°53' E 030°14'0 0.0
2018-Apr-21 04:30N 59°53' E 030°14'0 0.0
2018-Apr-21 03:56N 59°53' E 030°14'0 0.0
2018-Apr-21 03:28N 59°53' E 030°14'0 0.0
2018-Apr-21 03:00N 59°53' E 030°14'0 0.0
2018-Apr-21 02:20N 59°53' E 030°14'0 0.0
2018-Apr-21 01:38N 59°53' E 030°14'0 0.0
2018-Apr-21 01:27N 59°53' E 030°14'0 0.0
2018-Apr-21 00:50N 59°53' E 030°14'0 0.0
2018-Apr-21 00:28N 59°53' E 030°14'0 0.0
2018-Apr-21 00:00N 59°53' E 030°14'0 0.0
2018-Apr-20 23:30N 59°53' E 030°14'0 0.0
2018-Apr-20 23:00N 59°53' E 030°14'0 0.0
2018-Apr-20 22:30N 59°53' E 030°14'0 0.0
2018-Apr-20 22:00N 59°53' E 030°14'0 0.0
2018-Apr-20 21:30N 59°53' E 030°14'0 0.0
2018-Apr-20 20:57N 59°53' E 030°14'0 0.0
2018-Apr-20 20:30N 59°53' E 030°14'0 0.0
2018-Apr-20 20:00N 59°53' E 030°14'0 0.0
2018-Apr-20 19:30N 59°53' E 030°14'0 0.0
2018-Apr-20 19:00N 59°53' E 030°14'0 0.0
2018-Apr-20 18:27N 59°53' E 030°14'0 0.0
2018-Apr-20 17:56N 59°53' E 030°14'0 0.0
2018-Apr-20 17:29N 59°53' E 030°14'1 2.7
2018-Apr-20 16:59N 59°53' E 030°12'1 2.5
2018-Apr-20 16:31N 59°52' E 030°13'0 0.0
2018-Apr-20 16:01N 59°52' E 030°13'1 2.0
2018-Apr-20 15:28N 59°53' E 030°11'0 0.1
2018-Apr-20 15:00N 59°53' E 030°11'1 2.0
2018-Apr-20 14:30N 59°53' E 030°13'0 0.0
2018-Apr-20 14:00N 59°53' E 030°13'0 0.0
2018-Apr-20 13:30N 59°53' E 030°13'0 0.0
2018-Apr-20 13:00N 59°53' E 030°13'0 0.0
2018-Apr-20 12:30N 59°53' E 030°13'0 0.0
2018-Apr-20 12:00N 59°53' E 030°13'0 0.0
2018-Apr-20 11:30N 59°53' E 030°13'0 0.0
2018-Apr-20 11:00N 59°53' E 030°13'0 0.0
2018-Apr-20 10:30N 59°53' E 030°13'0 0.0
2018-Apr-20 10:00N 59°53' E 030°13'1 1.1
2018-Apr-20 09:30N 59°53' E 030°14'0 0.0
2018-Apr-20 09:00N 59°53' E 030°14'0 0.0
2018-Apr-20 08:30N 59°53' E 030°14'0 0.0
2018-Apr-20 07:59N 59°53' E 030°14'0 0.0
2018-Apr-20 07:30N 59°53' E 030°14'0 0.0
2018-Apr-20 06:56N 59°53' E 030°14'0 0.0
2018-Apr-20 06:30N 59°53' E 030°14'0 0.0
2018-Apr-20 06:00N 59°53' E 030°14'0 0.0
2018-Apr-20 05:27N 59°53' E 030°14'0 0.0
2018-Apr-20 04:59N 59°53' E 030°14'0 0.0
2018-Apr-20 04:28N 59°53' E 030°14'0 0.0
2018-Apr-20 03:58N 59°53' E 030°14'2 3.3
2018-Apr-20 03:30N 59°53' E 030°11'1 1.8
2018-Apr-20 03:00N 59°53' E 030°10'2 4.1
2018-Apr-20 02:30N 59°53' E 030°14'0 0.3
2018-Apr-20 01:26N 59°53' E 030°14'0 0.0
2018-Apr-20 00:58N 59°53' E 030°14'0 0.0
2018-Apr-20 00:30N 59°53' E 030°14'0 0.0
2018-Apr-20 00:00N 59°53' E 030°14'0 0.0
2018-Apr-19 23:30N 59°53' E 030°14'0 0.0
2018-Apr-19 23:00N 59°53' E 030°14'0 0.0
2018-Apr-19 22:30N 59°53' E 030°14'0 0.0
2018-Apr-19 22:01N 59°53' E 030°14'0 0.0
2018-Apr-19 21:31N 59°53' E 030°14'0 0.0
2018-Apr-19 20:53N 59°53' E 030°14'0 0.0
2018-Apr-19 20:28N 59°53' E 030°14'0 0.0
2018-Apr-19 19:55N 59°53' E 030°14'0 0.0
2018-Apr-19 19:23N 59°53' E 030°14'0 0.0
2018-Apr-19 18:46N 59°53' E 030°14'0 0.0
2018-Apr-19 18:30N 59°53' E 030°14'0 0.0
2018-Apr-19 17:47N 59°53' E 030°14'0 0.0
2018-Apr-19 16:57N 59°53' E 030°14'0 0.0
2018-Apr-19 16:30N 59°53' E 030°14'0 0.0
2018-Apr-19 16:00N 59°53' E 030°14'0 0.0
2018-Apr-19 15:24N 59°53' E 030°14'0 0.0
2018-Apr-19 14:59N 59°53' E 030°14'0 0.0
2018-Apr-19 14:30N 59°53' E 030°14'0 0.0
2018-Apr-19 13:58N 59°53' E 030°14'0 0.0
2018-Apr-19 13:29N 59°53' E 030°14'0 0.0
2018-Apr-19 12:59N 59°53' E 030°14'0 0.0
2018-Apr-19 12:30N 59°53' E 030°14'0 0.0
2018-Apr-19 11:58N 59°53' E 030°14'0 0.0
2018-Apr-19 11:30N 59°53' E 030°14'0 0.0
2018-Apr-19 11:01N 59°53' E 030°14'0 0.0
2018-Apr-19 10:30N 59°53' E 030°14'0 0.0
2018-Apr-19 10:00N 59°53' E 030°14'0 0.0
2018-Apr-19 09:16N 59°53' E 030°14'0 0.0
2018-Apr-19 08:58N 59°53' E 030°14'0 0.0
2018-Apr-19 08:28N 59°53' E 030°14'0 0.0
2018-Apr-19 08:00N 59°53' E 030°14'0 0.0
2018-Apr-19 07:30N 59°53' E 030°14'0 0.0
2018-Apr-19 07:00N 59°53' E 030°14'0 0.0
2018-Apr-19 06:30N 59°53' E 030°14'0 0.0
2018-Apr-19 05:58N 59°53' E 030°14'0 0.0
2018-Apr-19 05:30N 59°53' E 030°14'0 0.0
2018-Apr-19 04:58N 59°53' E 030°14'0 0.0
2018-Apr-19 04:30N 59°53' E 030°14'0 0.0
2018-Apr-19 03:58N 59°53' E 030°14'0 0.0
2018-Apr-19 03:26N 59°53' E 030°14'0 0.0
2018-Apr-19 02:58N 59°53' E 030°14'1 2.9
2018-Apr-19 02:30N 59°53' E 030°12'1 1.6
2018-Apr-19 01:48N 59°53' E 030°09'1 5.0
2018-Apr-19 01:30N 59°53' E 030°12'1 2.2
2018-Apr-19 01:00N 59°53' E 030°14'0 0.0
2018-Apr-19 00:30N 59°53' E 030°14'0 0.0
2018-Apr-19 00:00N 59°53' E 030°14'0 0.0
2018-Apr-18 23:30N 59°53' E 030°14'0 0.0
2018-Apr-18 23:00N 59°53' E 030°14'0 0.0
2018-Apr-18 22:30N 59°53' E 030°14'0 0.0
2018-Apr-18 22:01N 59°53' E 030°14'0 0.0
2018-Apr-18 21:30N 59°53' E 030°14'0 0.0
2018-Apr-18 21:00N 59°53' E 030°14'0 0.0
2018-Apr-18 19:45N 59°53' E 030°14'0 0.0
2018-Apr-18 19:30N 59°53' E 030°14'0 0.0
2018-Apr-18 18:49N 59°53' E 030°14'0 0.0
2018-Apr-18 18:29N 59°53' E 030°14'0 0.0
2018-Apr-18 18:00N 59°53' E 030°14'0 0.0
2018-Apr-18 17:28N 59°53' E 030°14'0 0.0
2018-Apr-18 16:59N 59°53' E 030°14'0 0.0
2018-Apr-18 16:29N 59°53' E 030°14'0 0.0
2018-Apr-18 16:00N 59°53' E 030°14'0 0.0
2018-Apr-18 15:30N 59°53' E 030°14'0 0.0
2018-Apr-18 15:00N 59°53' E 030°14'0 0.0
2018-Apr-18 14:30N 59°53' E 030°14'0 0.0
2018-Apr-18 13:56N 59°53' E 030°14'0 0.0
2018-Apr-18 13:30N 59°53' E 030°14'0 0.0
2018-Apr-18 13:00N 59°53' E 030°14'0 0.0
2018-Apr-18 12:29N 59°53' E 030°14'0 0.0
2018-Apr-18 12:00N 59°53' E 030°14'0 0.0
2018-Apr-18 11:23N 59°53' E 030°14'0 0.0
2018-Apr-18 10:55N 59°53' E 030°14'0 0.0
2018-Apr-18 10:30N 59°53' E 030°14'0 0.0
2018-Apr-18 10:00N 59°53' E 030°14'0 0.0
2018-Apr-18 09:30N 59°53' E 030°14'0 0.0
2018-Apr-18 09:00N 59°53' E 030°14'0 0.0
2018-Apr-18 08:29N 59°53' E 030°14'0 0.0
2018-Apr-18 08:00N 59°53' E 030°14'0 0.0
2018-Apr-18 07:30N 59°53' E 030°14'0 0.0
2018-Apr-18 06:58N 59°53' E 030°14'0 0.0
2018-Apr-18 06:29N 59°53' E 030°14'1 1.3
2018-Apr-18 06:00N 59°53' E 030°13'1 1.8
2018-Apr-18 05:30N 59°52' E 030°12'0 0.1
2018-Apr-18 05:01N 59°52' E 030°12'1 1.1
2018-Apr-18 04:29N 59°53' E 030°12'1 0.8
2018-Apr-18 03:53N 59°53' E 030°11'2 2.1
2018-Apr-18 03:04N 59°53' E 030°14'0 0.1
2018-Apr-18 02:59N 59°53' E 030°14'0 0.0
2018-Apr-18 02:27N 59°53' E 030°14'0 0.0
2018-Apr-18 01:59N 59°53' E 030°14'0 0.0
2018-Apr-18 01:27N 59°53' E 030°14'0 0.0
2018-Apr-18 00:59N 59°53' E 030°14'0 0.0
2018-Apr-18 00:30N 59°53' E 030°14'0 0.0
2018-Apr-18 00:00N 59°53' E 030°14'0 0.0
2018-Apr-17 23:30N 59°53' E 030°14'0 0.0
2018-Apr-17 23:00N 59°53' E 030°14'0 0.0
2018-Apr-17 22:30N 59°53' E 030°14'0 0.0
2018-Apr-17 22:01N 59°53' E 030°14'0 0.0
2018-Apr-17 21:30N 59°53' E 030°14'0 0.0
2018-Apr-17 21:01N 59°53' E 030°14'0 0.0
2018-Apr-17 20:12N 59°53' E 030°14'0 0.0
2018-Apr-17 19:59N 59°53' E 030°14'0 0.0
2018-Apr-17 19:11N 59°53' E 030°14'0 0.0
2018-Apr-17 18:54N 59°53' E 030°14'0 0.0
2018-Apr-17 18:29N 59°53' E 030°14'0 0.0
2018-Apr-17 17:59N 59°53' E 030°14'0 0.0
2018-Apr-17 16:45N 59°53' E 030°14'0 0.0
2018-Apr-17 16:27N 59°53' E 030°14'1 3.1
2018-Apr-17 16:00N 59°53' E 030°11'1 1.5
2018-Apr-17 15:29N 59°52' E 030°13'0 0.6
2018-Apr-17 14:59N 59°52' E 030°12'0 0.0
2018-Apr-17 14:30N 59°52' E 030°12'1 1.8
2018-Apr-17 14:01N 59°53' E 030°11'2 3.3
2018-Apr-17 13:30N 59°53' E 030°14'0 0.0
2018-Apr-17 12:59N 59°53' E 030°14'0 0.0
2018-Apr-17 12:27N 59°53' E 030°14'0 0.0
2018-Apr-17 11:54N 59°53' E 030°14'0 0.0
2018-Apr-17 11:22N 59°53' E 030°14'0 0.0
2018-Apr-17 10:47N 59°53' E 030°14'0 0.0
2018-Apr-17 10:30N 59°53' E 030°14'0 0.0
2018-Apr-17 10:00N 59°53' E 030°14'0 0.0
2018-Apr-17 09:30N 59°53' E 030°14'0 0.0
2018-Apr-17 08:59N 59°53' E 030°14'0 0.0
2018-Apr-17 08:30N 59°53' E 030°14'0 0.0
2018-Apr-17 08:00N 59°53' E 030°14'2 3.2
2018-Apr-17 07:30N 59°53' E 030°11'  

Dump ship's entire track history